Time;durP1;ratioP1;P1;durP2;ratioP2;P2;SDS_P1;SDS_P2;PMS_P1;PMS_P2;Temp;Humidity;BMP_temperature;BMP_pressure;BME280_temperature;BME280_humidity;BME280_pressure;Samples;Min_cycle;Max_cycle;Signal;HPM_P1;HPM_P2
2024/02/26 00:00:24;;;;;;;5.03;2.10;;;;;;;4.20;100.00;95373.72;5023318;28;20102;-63
2024/02/26 00:02:50;;;;;;;5.88;2.60;;;;;;;4.18;100.00;95374.00;5020672;28;20042;-63
2024/02/26 00:05:17;;;;;;;4.03;1.95;;;;;;;4.32;100.00;95368.16;5024948;28;20292;-63
2024/02/26 00:07:43;;;;;;;4.30;2.20;;;;;;;4.29;100.00;95361.44;5029345;28;20048;-63
2024/02/26 00:10:10;;;;;;;4.35;2.17;;;;;;;4.40;100.00;95357.75;5021442;28;20049;-63
2024/02/26 00:12:38;;;;;;;5.18;2.45;;;;;;;4.37;100.00;95366.31;5028067;28;20428;-63
2024/02/26 00:15:06;;;;;;;3.90;2.05;;;;;;;4.38;100.00;95361.75;5022719;28;20674;-63
2024/02/26 00:17:33;;;;;;;4.35;2.00;;;;;;;4.29;100.00;95358.78;5027001;28;20525;-63
2024/02/26 00:20:08;;;;;;;4.28;1.67;;;;;;;4.34;100.00;95355.28;5022131;28;20097;-63
2024/02/26 00:22:35;;;;;;;3.45;2.05;;;;;;;4.16;100.00;95362.72;5017603;28;20100;-63
2024/02/26 00:25:01;;;;;;;3.78;1.90;;;;;;;4.03;100.00;95372.81;5032037;28;20052;-63
2024/02/26 00:27:28;;;;;;;3.72;1.90;;;;;;;3.84;100.00;95367.09;5026049;28;20041;-63
2024/02/26 00:29:54;;;;;;;3.25;1.55;;;;;;;3.96;100.00;95372.28;5026195;28;20673;-63
2024/02/26 00:32:21;;;;;;;4.50;1.83;;;;;;;4.14;100.00;95372.91;5024379;28;20116;-63
2024/02/26 00:34:47;;;;;;;4.05;1.83;;;;;;;4.38;100.00;95367.09;5030813;28;20042;-63
2024/02/26 00:37:14;;;;;;;3.08;1.60;;;;;;;4.47;100.00;95370.09;5024328;28;20424;-62
2024/02/26 00:39:40;;;;;;;5.03;1.90;;;;;;;4.45;100.00;95372.25;5029253;28;20037;-62
2024/02/26 00:42:07;;;;;;;3.92;1.70;;;;;;;4.45;100.00;95369.56;5024015;28;20037;-63
2024/02/26 00:44:33;;;;;;;5.80;1.83;;;;;;;4.45;100.00;95367.66;5023469;28;20041;-63
2024/02/26 00:47:00;;;;;;;3.92;1.70;;;;;;;4.47;100.00;95362.88;5031434;28;20125;-63
2024/02/26 00:49:26;;;;;;;4.65;1.77;;;;;;;4.51;100.00;95371.19;5024088;28;20526;-63
2024/02/26 00:51:53;;;;;;;3.47;1.83;;;;;;;4.58;100.00;95377.09;5028609;28;20049;-63
2024/02/26 00:54:20;;;;;;;4.05;1.90;;;;;;;4.63;100.00;95369.06;5024341;28;20041;-63
2024/02/26 00:56:46;;;;;;;4.30;1.90;;;;;;;4.65;100.00;95371.50;5024409;28;20446;-63
2024/02/26 00:59:13;;;;;;;5.25;2.72;;;;;;;4.53;100.00;95377.88;5025609;28;20468;-62
2024/02/26 01:01:39;;;;;;;5.75;3.17;;;;;;;4.59;100.00;95376.03;5030527;28;20052;-63
2024/02/26 01:04:06;;;;;;;5.65;2.85;;;;;;;4.65;100.00;95374.97;5029896;28;20046;-62
2024/02/26 01:06:32;;;;;;;5.47;2.40;;;;;;;4.70;100.00;95382.22;5019750;28;20038;-63
2024/02/26 01:08:59;;;;;;;6.00;3.08;;;;;;;4.71;100.00;95365.06;5019927;28;20053;-63
2024/02/26 01:11:26;;;;;;;5.38;2.22;;;;;;;4.81;100.00;95375.84;5022819;28;20545;-63
2024/02/26 01:13:56;;;;;;;5.30;2.65;;;;;;;4.81;100.00;95364.28;5026128;28;20067;-63
2024/02/26 01:16:23;;;;;;;5.32;2.88;;;;;;;4.77;100.00;95364.03;5030073;28;20561;-62
2024/02/26 01:18:50;;;;;;;5.15;2.53;;;;;;;4.63;100.00;95357.53;5033351;28;20127;-63
2024/02/26 01:21:17;;;;;;;5.43;2.58;;;;;;;4.75;100.00;95352.75;5024573;28;20050;-63
2024/02/26 01:23:43;;;;;;;4.40;2.47;;;;;;;4.74;100.00;95367.22;5017329;28;20121;-63
2024/02/26 01:26:10;;;;;;;4.30;2.15;;;;;;;4.71;100.00;95356.25;5025479;28;20053;-63
2024/02/26 01:28:37;;;;;;;4.03;2.05;;;;;;;4.81;100.00;95354.38;5026336;28;20037;-62
2024/02/26 01:31:06;;;;;;;4.25;1.90;;;;;;;4.84;100.00;95365.66;5020637;28;20041;-63
2024/02/26 01:33:33;;;;;;;5.63;2.25;;;;;;;4.73;100.00;95365.63;5019840;28;20048;-63
2024/02/26 01:36:00;;;;;;;3.80;2.08;;;;;;;4.48;100.00;95372.50;5023165;28;20037;-63
2024/02/26 01:38:27;;;;;;;4.93;2.20;;;;;;;4.33;100.00;95378.63;5021635;28;20037;-63
2024/02/26 01:40:54;;;;;;;6.03;2.20;;;;;;;4.33;100.00;95383.16;5025560;28;20041;-63
2024/02/26 01:43:20;;;;;;;5.15;2.17;;;;;;;4.56;100.00;95389.97;5021481;28;20132;-63
2024/02/26 01:45:47;;;;;;;2.65;1.60;;;;;;;4.71;100.00;95399.13;5029818;28;20044;-63
2024/02/26 01:48:14;;;;;;;5.85;1.80;;;;;;;4.79;100.00;95398.63;5028564;28;20049;-63
2024/02/26 01:50:41;;;;;;;3.28;1.83;;;;;;;4.78;100.00;95411.22;5030819;28;20040;-62
2024/02/26 01:53:09;;;;;;;3.92;2.00;;;;;;;4.71;100.00;95401.81;5024027;28;20046;-62
2024/02/26 01:55:36;;;;;;;3.80;1.90;;;;;;;4.70;100.00;95414.41;5021601;28;20061;-63
2024/02/26 01:58:07;;;;;;;4.28;1.85;;;;;;;4.77;100.00;95406.94;5023121;28;20041;-63
2024/02/26 02:00:33;;;;;;;3.70;1.80;;;;;;;4.79;100.00;95412.81;5024295;28;20037;-62
2024/02/26 02:03:02;;;;;;;3.83;1.90;;;;;;;4.79;100.00;95407.47;5009021;28;20129;-63
2024/02/26 02:05:30;;;;;;;3.55;1.63;;;;;;;4.81;100.00;95412.56;5022675;28;20049;-63
2024/02/26 02:07:57;;;;;;;3.53;1.77;;;;;;;4.77;100.00;95412.28;5014734;28;20535;-62
2024/02/26 02:10:25;;;;;;;3.90;1.70;;;;;;;4.75;100.00;95411.75;5022049;28;20053;-63
2024/02/26 02:12:52;;;;;;;3.65;1.83;;;;;;;4.77;100.00;95417.66;5026687;28;20045;-63
2024/02/26 02:15:19;;;;;;;3.65;1.67;;;;;;;4.74;100.00;95418.19;5022615;28;20655;-63
2024/02/26 02:17:46;;;;;;;2.47;1.50;;;;;;;4.87;100.00;95419.53;5020116;28;20079;-63
2024/02/26 02:20:17;;;;;;;3.97;1.80;;;;;;;5.13;100.00;95427.69;5021378;28;20038;-63
2024/02/26 02:22:45;;;;;;;3.85;2.10;;;;;;;5.12;100.00;95428.72;5022778;28;20052;-62
2024/02/26 02:25:12;;;;;;;4.32;2.20;;;;;;;4.82;100.00;95431.06;5027340;28;20033;-63
2024/02/26 02:27:40;;;;;;;3.33;1.80;;;;;;;4.80;100.00;95427.84;5026593;28;20120;-63
2024/02/26 02:30:08;;;;;;;4.03;2.10;;;;;;;4.82;100.00;95428.41;5024644;28;20095;-63
2024/02/26 02:32:37;;;;;;;4.95;1.85;;;;;;;4.75;100.00;95419.00;5014470;28;20045;-63
2024/02/26 02:35:04;;;;;;;3.42;2.10;;;;;;;4.78;100.00;95418.44;5019150;28;20037;-63
2024/02/26 02:37:31;;;;;;;4.28;2.03;;;;;;;4.80;100.00;95424.38;5018389;28;20041;-63
2024/02/26 02:39:57;;;;;;;4.90;1.75;;;;;;;4.64;100.00;95420.84;5016616;28;20103;-62
2024/02/26 02:42:24;;;;;;;3.67;1.73;;;;;;;4.60;100.00;95420.53;5022880;28;20037;-63
2024/02/26 02:44:51;;;;;;;4.88;2.25;;;;;;;4.45;100.00;95418.59;5020113;28;20123;-62
2024/02/26 02:47:17;;;;;;;5.40;2.05;;;;;;;4.33;100.00;95416.13;5028316;28;20064;-62
2024/02/26 02:49:44;;;;;;;2.88;1.80;;;;;;;4.32;100.00;95416.38;5023019;28;20042;-63
2024/02/26 02:52:11;;;;;;;3.60;1.77;;;;;;;4.34;100.00;95422.28;5021233;28;20041;-63
2024/02/26 02:54:40;;;;;;;3.47;1.80;;;;;;;4.42;100.00;95425.28;5018096;28;20041;-63
2024/02/26 02:57:07;;;;;;;4.30;2.10;;;;;;;4.44;100.00;95425.03;5027341;28;20113;-63
2024/02/26 02:59:46;;;;;;;3.45;1.45;;;;;;;4.61;100.00;95415.97;5019349;28;20108;-63
2024/02/26 03:02:13;;;;;;;3.17;1.30;;;;;;;4.64;100.00;95413.56;5019144;28;20117;-62
2024/02/26 03:04:39;;;;;;;2.95;1.25;;;;;;;4.70;100.00;95414.41;5014757;28;20048;-62
2024/02/26 03:07:06;;;;;;;3.13;1.52;;;;;;;4.59;100.00;95407.38;5016628;28;20117;-62
2024/02/26 03:09:33;;;;;;;3.88;1.73;;;;;;;4.62;100.00;95401.50;5021426;28;20065;-63
2024/02/26 03:11:59;;;;;;;3.83;1.55;;;;;;;4.48;100.00;95404.69;5028376;28;20045;-63
2024/02/26 03:14:26;;;;;;;2.35;1.20;;;;;;;4.49;100.00;95413.53;5027195;28;20052;-62
2024/02/26 03:16:55;;;;;;;2.70;1.20;;;;;;;4.60;100.00;95399.09;5014719;28;20048;-62
2024/02/26 03:19:22;;;;;;;3.08;1.30;;;;;;;4.52;100.00;95395.03;5021638;28;20034;-62
2024/02/26 03:21:51;;;;;;;2.25;1.17;;;;;;;4.48;100.00;95390.47;5018590;28;20041;-62
2024/02/26 03:24:17;;;;;;;2.75;1.20;;;;;;;4.35;100.00;95403.25;5023569;28;20173;-62
2024/02/26 03:26:44;;;;;;;2.05;1.10;;;;;;;4.17;100.00;95401.84;5024667;28;20660;-62
2024/02/26 03:29:10;;;;;;;3.85;1.30;;;;;;;4.22;100.00;95398.38;5018463;28;20092;-63
2024/02/26 03:31:37;;;;;;;2.78;1.20;;;;;;;4.31;100.00;95396.81;5027350;28;20049;-62
2024/02/26 03:34:03;;;;;;;2.75;1.08;;;;;;;4.40;100.00;95397.13;5017899;28;20045;-63
2024/02/26 03:36:30;;;;;;;2.63;1.10;;;;;;;4.60;100.00;95385.69;5019490;28;20037;-62
2024/02/26 03:38:57;;;;;;;1.52;0.70;;;;;;;4.67;100.00;95390.78;5022353;28;20078;-62
2024/02/26 03:41:23;;;;;;;2.00;1.05;;;;;;;4.65;100.00;95380.34;5026618;28;20787;-63
2024/02/26 03:43:50;;;;;;;1.90;1.10;;;;;;;4.67;100.00;95369.34;5020935;28;20037;-62
2024/02/26 03:46:16;;;;;;;3.55;1.10;;;;;;;4.75;100.00;95363.47;5021565;28;20061;-63
2024/02/26 03:48:43;;;;;;;1.50;0.75;;;;;;;4.69;100.00;95356.50;5030830;28;20032;-62
2024/02/26 03:51:10;;;;;;;1.60;0.85;;;;;;;4.65;100.00;95358.88;5019192;28;20568;-62
2024/02/26 03:53:37;;;;;;;2.33;1.10;;;;;;;4.52;100.00;95352.16;5022832;28;20038;-62
2024/02/26 03:56:04;;;;;;;1.58;0.70;;;;;;;4.59;100.00;95346.56;5024701;28;20049;-63
2024/02/26 03:58:31;;;;;;;1.23;0.88;;;;;;;4.67;100.00;95343.34;5035190;28;20036;-63
2024/02/26 04:00:59;;;;;;;1.10;0.70;;;;;;;4.75;100.00;95360.00;5027351;28;20041;-63
2024/02/26 04:03:25;;;;;;;1.30;0.85;;;;;;;4.81;100.00;95358.94;5023170;28;20121;-63
2024/02/26 04:05:52;;;;;;;3.00;0.60;;;;;;;4.77;100.00;95349.81;5029154;28;20048;-63
2024/02/26 04:08:19;;;;;;;3.45;0.98;;;;;;;4.79;100.00;95345.78;5023580;28;20045;-63
2024/02/26 04:10:45;;;;;;;1.35;0.80;;;;;;;4.75;100.00;95350.06;5027583;28;20441;-62
2024/02/26 04:13:12;;;;;;;1.20;0.75;;;;;;;4.73;100.00;95348.72;5023040;28;20128;-62
2024/02/26 04:15:38;;;;;;;2.55;0.85;;;;;;;4.68;100.00;95346.81;5032613;28;20045;-63
2024/02/26 04:18:05;;;;;;;1.95;0.80;;;;;;;4.59;100.00;95354.59;5022221;28;20663;-62
2024/02/26 04:20:32;;;;;;;1.35;0.70;;;;;;;4.49;100.00;95343.84;5025945;28;20087;-63
2024/02/26 04:22:58;;;;;;;1.27;0.80;;;;;;;4.58;100.00;95354.84;5028714;28;20528;-63
2024/02/26 04:25:25;;;;;;;1.75;0.85;;;;;;;4.56;100.00;95357.78;5022572;28;20045;-63
2024/02/26 04:27:51;;;;;;;2.45;0.80;;;;;;;4.51;100.00;95350.56;5024242;28;20463;-62
2024/02/26 04:30:18;;;;;;;1.10;0.52;;;;;;;4.43;100.00;95351.06;5029491;28;21232;-63
2024/02/26 04:32:45;;;;;;;1.13;0.60;;;;;;;4.38;100.00;95351.00;5029354;28;20048;-62
2024/02/26 04:35:11;;;;;;;4.32;0.70;;;;;;;4.33;100.00;95354.50;5025961;28;20038;-62
2024/02/26 04:37:38;;;;;;;3.28;0.82;;;;;;;4.28;100.00;95365.19;5033556;28;20060;-62
2024/02/26 04:40:05;;;;;;;2.08;0.77;;;;;;;4.31;100.00;95371.91;5020353;28;20041;-62
2024/02/26 04:42:32;;;;;;;2.47;0.73;;;;;;;4.31;100.00;95369.22;5028941;28;20423;-63
2024/02/26 04:44:58;;;;;;;1.35;0.65;;;;;;;4.40;100.00;95364.97;5027177;28;20044;-63
2024/02/26 04:47:25;;;;;;;1.05;0.70;;;;;;;4.51;100.00;95361.28;5025710;28;20120;-63
2024/02/26 04:49:52;;;;;;;0.98;0.60;;;;;;;4.33;100.00;95367.91;5023020;28;20044;-63
2024/02/26 04:52:19;;;;;;;0.90;0.60;;;;;;;4.11;100.00;95370.72;5030004;28;20053;-63
2024/02/26 04:54:45;;;;;;;1.33;0.73;;;;;;;4.16;100.00;95381.47;5028897;28;20048;-63
2024/02/26 04:57:12;;;;;;;1.02;0.70;;;;;;;4.22;100.00;95380.44;5022543;28;20033;-63
2024/02/26 04:59:40;;;;;;;1.10;0.60;;;;;;;4.33;100.00;95385.84;5027423;28;20121;-63
2024/02/26 05:02:07;;;;;;;1.02;0.60;;;;;;;4.35;100.00;95376.47;5024684;28;20578;-63
2024/02/26 05:04:34;;;;;;;3.63;1.40;;;;;;;4.36;100.00;95379.97;5024705;28;20048;-63
2024/02/26 05:07:01;;;;;;;14.25;7.80;;;;;;;4.43;100.00;95392.03;5024346;28;20116;-63
2024/02/26 05:09:28;;;;;;;14.52;6.57;;;;;;;4.49;100.00;95390.19;5030843;28;20072;-63
2024/02/26 05:11:54;;;;;;;8.50;4.43;;;;;;;4.51;100.00;95393.44;5023902;28;20048;-63
2024/02/26 05:14:21;;;;;;;4.65;2.00;;;;;;;4.43;100.00;95401.97;5035057;28;20123;-63
2024/02/26 05:16:48;;;;;;;5.03;2.78;;;;;;;4.43;100.00;95404.66;5026179;28;20041;-63
2024/02/26 05:19:14;;;;;;;4.10;1.92;;;;;;;4.20;100.00;95401.31;5026209;28;20064;-63
2024/02/26 05:21:42;;;;;;;3.47;1.60;;;;;;;4.06;100.00;95408.22;5026346;28;20049;-63
2024/02/26 05:24:09;;;;;;;4.63;2.20;;;;;;;4.01;100.00;95411.66;5024750;28;20045;-63
2024/02/26 05:26:36;;;;;;;7.70;2.67;;;;;;;3.98;100.00;95406.81;5018803;28;20053;-62
2024/02/26 05:29:02;;;;;;;3.97;1.77;;;;;;;3.97;100.00;95419.41;5019976;28;20808;-63
2024/02/26 05:31:29;;;;;;;3.38;1.40;;;;;;;4.00;100.00;95415.41;5023809;28;20036;-63
2024/02/26 05:33:55;;;;;;;3.30;1.60;;;;;;;4.14;100.00;95421.94;5021901;28;20060;-62
2024/02/26 05:36:23;;;;;;;3.33;1.48;;;;;;;4.24;100.00;95421.16;5023699;28;20041;-63
2024/02/26 05:38:50;;;;;;;3.30;1.45;;;;;;;4.27;100.00;95431.38;5021387;28;20092;-63
2024/02/26 05:41:22;;;;;;;3.35;1.65;;;;;;;4.24;100.00;95431.88;5022415;28;20104;-62
2024/02/26 05:43:50;;;;;;;4.47;1.73;;;;;;;4.34;100.00;95430.31;5024053;28;20112;-62
2024/02/26 05:46:18;;;;;;;6.47;2.28;;;;;;;4.43;100.00;95439.50;5022416;28;20107;-63
2024/02/26 05:48:47;;;;;;;4.35;2.05;;;;;;;4.39;100.00;95435.72;5023636;28;20047;-62
2024/02/26 05:51:14;;;;;;;5.05;2.20;;;;;;;4.26;100.00;95432.44;5031430;28;20673;-63
2024/02/26 05:53:41;;;;;;;3.85;1.90;;;;;;;4.28;100.00;95434.84;5015716;28;20056;-63
2024/02/26 05:56:07;;;;;;;6.18;2.45;;;;;;;4.36;100.00;95430.88;5025655;28;20117;-63
2024/02/26 05:58:34;;;;;;;5.25;2.30;;;;;;;4.37;100.00;95435.16;5024136;28;20050;-63
2024/02/26 06:01:01;;;;;;;3.42;1.77;;;;;;;4.40;100.00;95434.66;5021215;28;20045;-63
2024/02/26 06:03:27;;;;;;;4.18;2.40;;;;;;;4.45;100.00;95436.56;5033247;28;20044;-63
2024/02/26 06:05:54;;;;;;;3.83;1.88;;;;;;;4.39;100.00;95427.69;5029521;28;20041;-63
2024/02/26 06:08:20;;;;;;;3.88;1.95;;;;;;;4.43;100.00;95437.59;5021045;28;20121;-62
2024/02/26 06:10:47;;;;;;;4.32;2.03;;;;;;;4.49;100.00;95433.06;5018856;28;20524;-63
2024/02/26 06:13:13;;;;;;;4.88;2.58;;;;;;;4.51;100.00;95433.63;5021308;28;20096;-67
2024/02/26 06:15:40;;;;;;;4.22;2.08;;;;;;;4.52;100.00;95434.44;5024469;28;20061;-66
2024/02/26 06:18:06;;;;;;;4.32;2.00;;;;;;;4.32;100.00;95435.97;5027855;28;20051;-66
2024/02/26 06:20:33;;;;;;;4.45;2.10;;;;;;;4.35;100.00;95432.72;5025482;28;20037;-66
2024/02/26 06:22:59;;;;;;;3.78;1.88;;;;;;;4.32;100.00;95437.81;5017237;28;20059;-67
2024/02/26 06:25:26;;;;;;;3.83;2.00;;;;;;;4.27;100.00;95443.94;5019142;28;20050;-67
2024/02/26 06:27:53;;;;;;;3.33;1.98;;;;;;;4.31;100.00;95447.72;5026546;28;20049;-66
2024/02/26 06:30:19;;;;;;;4.53;1.83;;;;;;;4.29;100.00;95447.19;5017205;28;20045;-66
2024/02/26 06:32:46;;;;;;;4.78;1.60;;;;;;;4.28;100.00;95448.25;5018190;28;20069;-65
2024/02/26 06:35:12;;;;;;;2.88;1.50;;;;;;;4.33;100.00;95459.00;5027926;28;20041;-64
2024/02/26 06:37:41;;;;;;;2.92;1.40;;;;;;;4.38;100.00;95459.03;5024492;28;20052;-66
2024/02/26 06:40:08;;;;;;;4.13;1.17;;;;;;;4.38;100.00;95459.03;5020298;28;20033;-66
2024/02/26 06:42:35;;;;;;;4.45;1.45;;;;;;;4.31;100.00;95455.75;5016813;28;20049;-66
2024/02/26 06:45:04;;;;;;;3.17;1.45;;;;;;;4.48;100.00;95469.00;5019039;28;20598;-66
2024/02/26 06:47:30;;;;;;;3.00;1.30;;;;;;;4.46;100.00;95471.13;5021728;28;20057;-67
2024/02/26 06:49:58;;;;;;;1.85;0.98;;;;;;;4.31;100.00;95476.41;5016267;28;20105;-65
2024/02/26 06:52:25;;;;;;;3.65;1.50;;;;;;;4.33;100.00;95474.25;5031176;28;20393;-66
2024/02/26 06:54:52;;;;;;;3.00;1.17;;;;;;;4.38;100.00;95476.97;5023278;28;20095;-66
2024/02/26 06:57:20;;;;;;;2.10;0.90;;;;;;;4.48;100.00;95481.56;5018957;28;20148;-67
2024/02/26 06:59:47;;;;;;;2.38;0.98;;;;;;;4.45;100.00;95484.78;5018314;28;20052;-66
2024/02/26 07:02:14;;;;;;;1.52;0.98;;;;;;;4.48;100.00;95489.63;5017697;28;20744;-66
2024/02/26 07:04:40;;;;;;;4.40;1.38;;;;;;;4.62;100.00;95495.31;5026015;28;20045;-67
2024/02/26 07:07:08;;;;;;;5.88;1.50;;;;;;;4.63;100.00;95492.41;5019003;28;20034;-65
2024/02/26 07:09:35;;;;;;;3.42;1.48;;;;;;;4.62;100.00;95506.06;5022586;28;20064;-65
2024/02/26 07:12:02;;;;;;;3.47;1.45;;;;;;;4.63;100.00;95507.66;5011326;28;20821;-66
2024/02/26 07:14:28;;;;;;;3.33;1.40;;;;;;;4.74;100.00;95513.88;5019711;28;20056;-66
2024/02/26 07:16:55;;;;;;;4.50;1.77;;;;;;;4.87;100.00;95509.94;5022727;28;20045;-65
2024/02/26 07:19:21;;;;;;;4.75;1.42;;;;;;;5.02;100.00;95507.28;5020145;28;20333;-64
2024/02/26 07:21:48;;;;;;;3.15;1.38;;;;;;;5.08;100.00;95503.59;5020732;28;20037;-67
2024/02/26 07:24:15;;;;;;;4.10;1.55;;;;;;;5.12;100.00;95505.75;5025534;28;20041;-66
2024/02/26 07:26:41;;;;;;;3.72;1.40;;;;;;;5.16;100.00;95506.84;5018921;28;20045;-65
2024/02/26 07:29:08;;;;;;;3.15;1.58;;;;;;;5.21;100.00;95515.69;5021358;28;20041;-65
2024/02/26 07:31:34;;;;;;;3.25;1.40;;;;;;;5.23;100.00;95507.38;5020077;28;20037;-66
2024/02/26 07:34:01;;;;;;;3.53;1.33;;;;;;;5.34;100.00;95505.53;5031843;28;20033;-67
2024/02/26 07:36:28;;;;;;;2.85;1.35;;;;;;;5.41;100.00;95514.13;5030504;28;20059;-64
2024/02/26 07:38:54;;;;;;;2.90;1.33;;;;;;;5.46;100.00;95505.31;5034145;28;20617;-67
2024/02/26 07:41:21;;;;;;;2.90;0.98;;;;;;;5.47;100.00;95506.91;5024430;28;20520;-67
2024/02/26 07:43:48;;;;;;;2.45;1.17;;;;;;;5.49;100.00;95496.69;4971149;28;1402985;-65
2024/02/26 07:46:15;;;;;;;2.38;1.00;;;;;;;5.57;100.00;95504.22;5019582;28;20814;-67
2024/02/26 07:48:41;;;;;;;2.13;1.10;;;;;;;5.59;100.00;95512.84;5020581;28;20042;-67
2024/02/26 07:51:08;;;;;;;1.58;0.90;;;;;;;5.63;100.00;95507.75;5018017;28;20045;-66
2024/02/26 07:53:35;;;;;;;2.05;0.88;;;;;;;5.73;100.00;95501.59;5022045;28;20069;-67
2024/02/26 07:56:03;;;;;;;2.35;1.00;;;;;;;5.77;100.00;95505.34;5010984;28;20048;-66
2024/02/26 07:58:29;;;;;;;1.67;0.82;;;;;;;5.77;100.00;95499.97;5017239;28;20069;-66
2024/02/26 08:00:56;;;;;;;1.85;0.82;;;;;;;5.83;100.00;95506.94;5016819;28;20041;-66
2024/02/26 08:03:22;;;;;;;3.13;1.40;;;;;;;5.87;100.00;95509.94;5021225;28;20075;-66
2024/02/26 08:05:50;;;;;;;3.65;1.55;;;;;;;6.05;100.00;95505.13;5018384;28;20041;-66
2024/02/26 08:08:17;;;;;;;1.92;1.13;;;;;;;6.16;100.00;95511.28;5016853;28;20624;-66
2024/02/26 08:10:44;;;;;;;3.72;0.98;;;;;;;6.23;100.00;95506.47;5026516;28;20049;-67
2024/02/26 08:13:10;;;;;;;3.03;1.02;;;;;;;6.39;100.00;95507.25;5018991;28;20040;-66
2024/02/26 08:15:37;;;;;;;2.92;1.15;;;;;;;6.15;100.00;95512.38;5020010;28;20065;-65
2024/02/26 08:18:04;;;;;;;3.20;1.55;;;;;;;6.10;100.00;95511.31;5026553;28;20693;-67
2024/02/26 08:20:32;;;;;;;3.83;1.60;;;;;;;6.19;100.00;95516.16;5023058;28;20647;-65
2024/02/26 08:22:58;;;;;;;2.10;0.95;;;;;;;6.16;100.00;95509.41;5015921;28;20612;-66
2024/02/26 08:25:25;;;;;;;3.67;1.00;;;;;;;6.15;100.00;95507.78;5021518;28;20053;-65
2024/02/26 08:27:52;;;;;;;3.42;1.20;;;;;;;6.20;100.00;95518.53;5018772;28;20216;-67
2024/02/26 08:30:18;;;;;;;1.75;0.90;;;;;;;6.29;100.00;95520.69;5027737;28;20044;-66
2024/02/26 08:32:47;;;;;;;1.52;0.80;;;;;;;6.32;100.00;95523.66;5025105;28;20067;-67
2024/02/26 08:35:18;;;;;;;2.22;0.80;;;;;;;6.45;100.00;95524.97;5026242;28;20056;-67
2024/02/26 08:37:46;;;;;;;1.63;0.90;;;;;;;6.68;100.00;95527.34;5027529;28;20042;-66
2024/02/26 08:40:13;;;;;;;2.28;1.00;;;;;;;6.63;100.00;95531.66;5020934;28;20045;-68
2024/02/26 08:42:39;;;;;;;2.10;0.90;;;;;;;6.74;100.00;95537.81;5014085;28;20436;-65
2024/02/26 08:45:07;;;;;;;2.97;0.90;;;;;;;6.75;100.00;95541.34;5016427;28;20037;-66
2024/02/26 08:47:34;;;;;;;1.80;0.90;;;;;;;6.86;100.00;95536.75;5025915;28;20049;-67
2024/02/26 08:50:01;;;;;;;3.38;0.93;;;;;;;7.03;100.00;95539.09;5019750;28;20045;-65
2024/02/26 08:52:28;;;;;;;2.33;1.08;;;;;;;7.17;100.00;95542.00;5024174;28;20052;-66
2024/02/26 08:54:54;;;;;;;2.65;1.20;;;;;;;7.28;100.00;95548.16;5024031;28;20046;-66
2024/02/26 08:57:20;;;;;;;2.53;0.73;;;;;;;7.46;100.00;95543.22;5022778;28;20060;-67
2024/02/26 08:59:47;;;;;;;1.80;1.00;;;;;;;7.59;100.00;95544.53;5029253;28;20041;-66
2024/02/26 09:02:14;;;;;;;2.38;1.20;;;;;;;7.71;100.00;95538.78;5025891;28;20037;-66
2024/02/26 09:04:40;;;;;;;3.00;1.23;;;;;;;7.62;100.00;95552.03;5024274;28;20053;-68
2024/02/26 09:07:07;;;;;;;1.38;0.60;;;;;;;7.71;100.00;95545.00;5025626;28;20113;-66
2024/02/26 09:09:33;;;;;;;1.48;0.77;;;;;;;7.89;100.00;95545.41;5026336;28;20052;-67
2024/02/26 09:12:00;;;;;;;3.13;0.88;;;;;;;7.85;100.00;95547.06;5026910;28;20045;-67
2024/02/26 09:14:27;;;;;;;2.33;0.80;;;;;;;7.93;100.00;95546.47;5015728;28;20045;-66
2024/02/26 09:16:54;;;;;;;2.00;0.90;;;;;;;8.10;100.00;95548.75;5021757;28;20057;-65
2024/02/26 09:19:20;;;;;;;1.60;0.95;;;;;;;8.11;100.00;95533.41;5023109;28;20053;-67
2024/02/26 09:21:47;;;;;;;4.10;1.30;;;;;;;8.15;100.00;95529.06;5027800;28;20049;-66
2024/02/26 09:24:14;;;;;;;5.15;1.20;;;;;;;8.24;100.00;95523.84;5025497;28;20571;-66
2024/02/26 09:26:41;;;;;;;2.60;1.20;;;;;;;8.33;100.00;95543.72;5022411;28;20141;-66
2024/02/26 09:29:08;;;;;;;3.33;1.15;;;;;;;8.35;100.00;95548.84;5014604;28;20095;-67
2024/02/26 09:31:35;;;;;;;2.58;1.10;;;;;;;8.36;100.00;95550.47;5021423;28;20049;-65
2024/02/26 09:34:01;;;;;;;2.03;0.90;;;;;;;8.28;100.00;95551.84;5022659;28;20496;-66
2024/02/26 09:36:29;;;;;;;2.08;1.00;;;;;;;8.19;100.00;95547.06;5019891;28;20693;-67
2024/02/26 09:38:56;;;;;;;1.40;0.90;;;;;;;8.24;100.00;95545.41;5029647;28;20663;-65
2024/02/26 09:41:30;;;;;;;2.97;1.20;;;;;;;8.39;100.00;95547.19;5016040;28;20420;-67
2024/02/26 09:43:59;;;;;;;3.85;1.60;;;;;;;8.36;100.00;95547.78;5026797;28;20056;-67
2024/02/26 09:46:26;;;;;;;4.07;2.15;;;;;;;8.50;100.00;95543.31;5020258;28;20048;-67
2024/02/26 09:48:53;;;;;;;7.13;2.30;;;;;;;8.47;100.00;95551.97;5030824;28;20532;-66
2024/02/26 09:51:27;;;;;;;4.32;1.90;;;;;;;8.59;100.00;95559.75;5020553;28;20041;-65
2024/02/26 09:53:54;;;;;;;5.25;1.70;;;;;;;8.77;100.00;95560.91;5023565;28;20632;-66
2024/02/26 09:56:21;;;;;;;3.72;1.80;;;;;;;8.76;100.00;95562.00;5030193;28;20049;-65
2024/02/26 09:58:53;;;;;;;6.32;3.38;;;;;;;8.79;100.00;95557.91;5027510;28;20052;-65
2024/02/26 10:01:20;;;;;;;8.15;3.65;;;;;;;8.62;100.00;95561.84;5025476;28;20087;-66
2024/02/26 10:03:57;;;;;;;8.80;4.45;;;;;;;8.69;100.00;95569.59;5027519;28;20921;-65
2024/02/26 10:06:26;;;;;;;5.40;3.22;;;;;;;8.84;100.00;95565.97;5028234;28;20099;-66
2024/02/26 10:08:54;;;;;;;3.55;1.90;;;;;;;8.76;100.00;95567.38;5021903;28;20069;-64
2024/02/26 10:11:22;;;;;;;6.15;2.00;;;;;;;9.06;100.00;95572.75;5034263;28;20596;-65
2024/02/26 10:13:49;;;;;;;5.85;2.00;;;;;;;9.11;100.00;95568.09;5030996;28;20554;-65
2024/02/26 10:16:16;;;;;;;5.50;2.15;;;;;;;9.14;100.00;95561.31;5028103;28;20124;-64
2024/02/26 10:18:46;;;;;;;3.53;1.70;;;;;;;9.23;100.00;95554.22;5023204;28;20041;-66
2024/02/26 10:21:25;;;;;;;3.90;1.80;;;;;;;9.27;100.00;95559.03;5025445;28;20048;-65
2024/02/26 10:23:51;;;;;;;3.78;1.58;;;;;;;9.47;100.00;95564.19;5029284;28;20825;-65
2024/02/26 10:26:19;;;;;;;3.55;1.60;;;;;;;9.50;100.00;95568.19;5026202;28;20571;-65
2024/02/26 10:28:46;;;;;;;4.63;3.05;;;;;;;9.52;100.00;95576.84;5020950;28;20053;-64
2024/02/26 10:31:17;;;;;;;3.90;1.52;;;;;;;9.74;100.00;95580.88;5012153;28;20033;-66
2024/02/26 10:33:44;;;;;;;11.48;4.18;;;;;;;10.09;100.00;95580.66;5029075;28;20518;-65
2024/02/26 10:36:12;;;;;;;5.10;2.67;;;;;;;10.20;100.00;95587.53;5019187;28;20053;-66
2024/02/26 10:38:38;;;;;;;5.25;2.85;;;;;;;10.25;100.00;95586.66;5031859;28;20056;-66
2024/02/26 10:41:14;;;;;;;6.18;3.00;;;;;;;9.96;100.00;95593.03;5030589;28;20037;-65
2024/02/26 10:43:42;;;;;;;5.75;3.42;;;;;;;9.60;100.00;95586.19;5018146;28;20091;-66
2024/02/26 10:46:09;;;;;;;5.45;2.45;;;;;;;9.62;100.00;95578.59;5020463;28;20041;-67
2024/02/26 10:48:36;;;;;;;6.72;2.80;;;;;;;9.43;100.00;95592.09;5014067;28;20056;-64
2024/02/26 10:51:04;;;;;;;5.13;2.58;;;;;;;9.59;100.00;95598.88;5021585;28;20049;-66
2024/02/26 10:53:33;;;;;;;7.95;3.40;;;;;;;9.81;100.00;95597.56;5026002;28;20080;-66
2024/02/26 10:56:07;;;;;;;10.05;3.10;;;;;;;9.72;100.00;95597.38;5026188;28;20135;-65
2024/02/26 10:58:35;;;;;;;6.72;3.22;;;;;;;9.75;100.00;95602.22;5022380;28;20692;-64
2024/02/26 11:01:04;;;;;;;5.10;3.15;;;;;;;9.71;100.00;95601.19;5019142;28;20045;-64
2024/02/26 11:03:34;;;;;;;8.35;3.13;;;;;;;9.85;100.00;95608.56;5021523;28;20574;-66
2024/02/26 11:06:03;;;;;;;6.13;3.30;;;;;;;9.67;100.00;95605.56;5019573;28;20172;-64
2024/02/26 11:08:32;;;;;;;6.40;3.08;;;;;;;9.57;100.00;95611.06;5026527;28;20045;-65
2024/02/26 11:11:00;;;;;;;6.20;3.63;;;;;;;9.50;100.00;95604.13;5035336;28;20116;-66
2024/02/26 11:13:30;;;;;;;12.90;4.90;;;;;;;9.62;100.00;95611.03;5017700;28;20052;-65
2024/02/26 11:16:00;;;;;;;4.60;2.60;;;;;;;9.78;100.00;95614.34;5027274;28;20501;-65
2024/02/26 11:18:27;;;;;;;6.28;2.50;;;;;;;10.01;100.00;95615.38;5023352;28;20041;-65
2024/02/26 11:20:57;;;;;;;4.50;2.58;;;;;;;10.06;100.00;95613.72;5022324;28;20075;-66
2024/02/26 11:23:24;;;;;;;8.07;3.63;;;;;;;9.90;100.00;95605.78;5023217;28;20049;-66
2024/02/26 11:25:54;;;;;;;5.47;2.45;;;;;;;9.93;100.00;95593.59;5018595;28;20052;-66
2024/02/26 11:28:24;;;;;;;5.57;2.30;;;;;;;9.97;100.00;95597.31;5017566;28;20060;-65
2024/02/26 11:30:51;;;;;;;5.70;2.47;;;;;;;10.27;100.00;95609.59;5014732;28;20046;-65
2024/02/26 11:33:19;;;;;;;4.88;2.13;;;;;;;10.52;99.59;95602.22;5016501;28;20052;-65